MBS International Airport
KMBS : rendu visible

Aérodrome :











RETROUVEZ-NOUS SUR...

 
LOGIN :

S'inscrire | Disclaimer

   EN    FR    IT 

 









Légende :    VFR   VFR Marginal   IFR   IFR Intensif   IFR Très Intensif
Visi : 
Plafond : 
>= 8 km
>= 3000ft
5 à 8 km
1000 à 3000 ft
1500m à 5 km
500 à 1000 ft
800 à 1500m
200 à 500 ft
< 800m
< 200 ft
Symboles :   Orages  Brouillard  Fortes neiges  Fortes précipitations  Vent > 20 kt






- Altitude de l'aérodrome : 668 ft
- Code IATA : MBS


KMBS - MBS International

DERNIER METAR :
  • 100853Z AUTO 29012G22KT 10SM SCT025 BKN029 OVC050 00/M06 A2971 RMK AO2 SLP065 60000 T00001056 51044

METARs EXPIRÉS :
  • 100753Z AUTO 30009G17KT 10SM OVC022 01/M04 A2966 RMK AO2 PRESRR SLP049 T00061039
  • 100653Z AUTO 30012KT 9SM BKN015 BKN021 OVC031 01/M03 A2962 RMK AO2 PK WND 26026/0606 SNB41E51 SLP034 P0000 T00111028
  • 100629Z AUTO 31018KT 10SM FEW013 BKN020 OVC055 01/M02 A2961 RMK AO2 PK WND 26026/0606 T00111017

TAF KMBS
Valide du 10 à 06h jusqu'au 11 à 06h UTC


100539Z 1006/1106 27016G26KT P6SM OVC022
FM101000 28012G22KT P6SM -SHSN SCT025 OVC035
FM101700 27014KT P6SM BKN045
FM110000 26012KT P6SM SCT045



MET'MAP, la Météo Aéronautique d'un coup d'oeil ! - Copyright ORBIFLY Décembre 2007 - Disclaimer

ORBIFLY MET'MAP TEAM :

Programmation & Développement : Alexandra Zaïnal
Sur une idée originale de : Baudouin d'Aumeries
Assistance à la programmation : Marc-Olivier Méhu
Soutien technique & logistique : Manuel Goepfert

Contact : metmap@orbifly.com




SOURCES & CREDITS :

   NOAA       Earth
Advisory